ESFU weather

CLOSED Urasa Air Base
Växjö, Kronoberge län, Sweden

Public forecast

Using degrees Celsius for public forecast. Weather courtesy of forecast.io.

Closest aviation weather report (METAR) to Urasa Air Base

Closest report is Växjö Kronoberg Airport, 16.5 nm (30.6 km) NNW. Retrieved 2020/03/31 07:20 UTC (9 minutes ago):

ESMX 310720Z 22004KT CAVOK M01/M07 Q1028

Closest aviation forecast (TAF) to Urasa Air Base

Forecast is more than 12 hours old.

Closest forecast is Växjö Kronoberg Airport, 16.5 nm (30.6 km) NNW. Retrieved 2019/06/26 16:36 UTC (9 months ago):

TAF TAF ESMX 261530Z 2616/2724 30009KT 9999 SCT040TCU